LFMO

Orange-Caritat (BA 115) Air Base Airport

Orange/Caritat, France
TAF LFMO 210200Z 2103/2203 34010KT CAVOK
Issued Valid From Valid To
Aug-21 @ 02:00 UTC
(16 hours ago)
Aug-21 @ 03:00 UTC
(15 hours ago)
Aug-22 @ 03:00 UTC
(in 9 hours)
Aug-21 @ 03:00 to Aug-22 @ 03:00
TAF LFMO 210200Z 2103/2203 34010KT CAVOK
Wind Visibility Clouds Conditions
340° at 10 knots 10,000+ meters
  • No significant clouds
TAF LFMO 210200Z 2103/2203 34010KT CAVOK
Issued Aug-21 @ 02:00 UTC
(16 hours ago)
Valid From Aug-21 @ 03:00 UTC
(15 hours ago)
Valid To Aug-22 @ 03:00 UTC
(in 9 hours)
Aug-21 @ 03:00 - Aug-22 @ 03:00
Wind Visibility
340° at 10 knots 10,000+ meters
Clouds
  • No significant clouds
Conditions